sensor_id;sensor_type;location;lat;lon;timestamp;P1;durP1;ratioP1;P2;durP2;ratioP2
16973;SDS011;8603;46.944;7.412;2023-07-13T00:01:57;11.50;;;6.57;;
16973;SDS011;8603;46.944;7.412;2023-07-13T00:04:24;8.63;;;6.65;;
16973;SDS011;8603;46.944;7.412;2023-07-13T00:06:50;9.60;;;5.93;;
16973;SDS011;8603;46.944;7.412;2023-07-13T00:09:16;9.23;;;6.60;;
16973;SDS011;8603;46.944;7.412;2023-07-13T00:11:43;10.60;;;6.07;;
16973;SDS011;8603;46.944;7.412;2023-07-13T00:14:11;9.88;;;6.55;;
16973;SDS011;8603;46.944;7.412;2023-07-13T00:16:37;9.32;;;5.78;;
16973;SDS011;8603;46.944;7.412;2023-07-13T00:19:05;10.50;;;6.53;;
16973;SDS011;8603;46.944;7.412;2023-07-13T00:21:31;7.93;;;6.38;;
16973;SDS011;8603;46.944;7.412;2023-07-13T00:23:57;7.25;;;5.78;;
16973;SDS011;8603;46.944;7.412;2023-07-13T00:26:22;10.48;;;5.82;;
16973;SDS011;8603;46.944;7.412;2023-07-13T00:28:48;7.70;;;5.80;;
16973;SDS011;8603;46.944;7.412;2023-07-13T00:31:14;11.02;;;6.25;;
16973;SDS011;8603;46.944;7.412;2023-07-13T00:33:40;13.48;;;6.47;;
16973;SDS011;8603;46.944;7.412;2023-07-13T00:36:07;10.35;;;5.85;;
16973;SDS011;8603;46.944;7.412;2023-07-13T00:38:33;9.15;;;5.65;;
16973;SDS011;8603;46.944;7.412;2023-07-13T00:40:58;6.05;;;4.95;;
16973;SDS011;8603;46.944;7.412;2023-07-13T00:43:25;8.20;;;5.45;;
16973;SDS011;8603;46.944;7.412;2023-07-13T00:48:22;7.45;;;5.78;;
16973;SDS011;8603;46.944;7.412;2023-07-13T00:50:52;8.25;;;5.03;;
16973;SDS011;8603;46.944;7.412;2023-07-13T00:53:20;7.68;;;4.80;;
16973;SDS011;8603;46.944;7.412;2023-07-13T00:55:46;5.75;;;5.18;;
16973;SDS011;8603;46.944;7.412;2023-07-13T00:58:14;6.80;;;5.15;;
16973;SDS011;8603;46.944;7.412;2023-07-13T01:00:40;13.30;;;5.78;;
16973;SDS011;8603;46.944;7.412;2023-07-13T01:03:06;7.82;;;5.30;;
16973;SDS011;8603;46.944;7.412;2023-07-13T01:05:32;18.75;;;5.97;;
16973;SDS011;8603;46.944;7.412;2023-07-13T01:07:59;6.78;;;4.30;;
16973;SDS011;8603;46.944;7.412;2023-07-13T01:10:27;13.07;;;4.88;;
16973;SDS011;8603;46.944;7.412;2023-07-13T01:12:53;8.73;;;4.57;;
16973;SDS011;8603;46.944;7.412;2023-07-13T01:18:16;6.40;;;4.72;;
16973;SDS011;8603;46.944;7.412;2023-07-13T01:20:54;7.18;;;4.53;;
16973;SDS011;8603;46.944;7.412;2023-07-13T01:23:24;7.95;;;4.65;;
16973;SDS011;8603;46.944;7.412;2023-07-13T01:25:50;10.88;;;5.20;;
16973;SDS011;8603;46.944;7.412;2023-07-13T01:28:16;12.48;;;6.15;;
16973;SDS011;8603;46.944;7.412;2023-07-13T01:30:43;13.85;;;5.97;;
16973;SDS011;8603;46.944;7.412;2023-07-13T01:33:11;8.63;;;5.20;;
16973;SDS011;8603;46.944;7.412;2023-07-13T01:35:41;7.97;;;4.38;;
16973;SDS011;8603;46.944;7.412;2023-07-13T01:38:08;9.13;;;5.20;;
16973;SDS011;8603;46.944;7.412;2023-07-13T01:40:35;6.35;;;4.38;;
16973;SDS011;8603;46.944;7.412;2023-07-13T01:43:02;5.80;;;4.25;;
16973;SDS011;8603;46.944;7.412;2023-07-13T01:45:28;6.82;;;4.95;;
16973;SDS011;8603;46.944;7.412;2023-07-13T01:47:53;7.35;;;5.00;;
16973;SDS011;8603;46.944;7.412;2023-07-13T01:50:19;7.75;;;5.30;;
16973;SDS011;8603;46.944;7.412;2023-07-13T01:52:45;8.43;;;5.05;;
16973;SDS011;8603;46.944;7.412;2023-07-13T01:55:11;9.80;;;5.72;;
16973;SDS011;8603;46.944;7.412;2023-07-13T01:57:36;10.35;;;5.35;;
16973;SDS011;8603;46.944;7.412;2023-07-13T02:00:05;8.00;;;5.00;;
16973;SDS011;8603;46.944;7.412;2023-07-13T02:02:32;9.07;;;5.20;;
16973;SDS011;8603;46.944;7.412;2023-07-13T02:04:57;8.02;;;4.70;;
16973;SDS011;8603;46.944;7.412;2023-07-13T02:07:23;6.65;;;4.68;;
16973;SDS011;8603;46.944;7.412;2023-07-13T02:09:49;8.02;;;4.88;;
16973;SDS011;8603;46.944;7.412;2023-07-13T02:12:14;7.85;;;4.68;;
16973;SDS011;8603;46.944;7.412;2023-07-13T02:14:40;6.20;;;4.45;;
16973;SDS011;8603;46.944;7.412;2023-07-13T02:17:05;7.00;;;4.18;;
16973;SDS011;8603;46.944;7.412;2023-07-13T02:19:32;4.15;;;3.33;;
16973;SDS011;8603;46.944;7.412;2023-07-13T02:21:57;6.70;;;4.05;;
16973;SDS011;8603;46.944;7.412;2023-07-13T02:24:23;5.72;;;3.65;;
16973;SDS011;8603;46.944;7.412;2023-07-13T02:26:49;9.18;;;4.00;;
16973;SDS011;8603;46.944;7.412;2023-07-13T02:29:14;7.03;;;3.97;;
16973;SDS011;8603;46.944;7.412;2023-07-13T02:31:40;4.57;;;3.85;;
16973;SDS011;8603;46.944;7.412;2023-07-13T02:34:08;6.50;;;4.22;;
16973;SDS011;8603;46.944;7.412;2023-07-13T02:36:33;6.82;;;4.18;;
16973;SDS011;8603;46.944;7.412;2023-07-13T02:39:00;10.40;;;5.05;;
16973;SDS011;8603;46.944;7.412;2023-07-13T02:41:27;6.88;;;5.05;;
16973;SDS011;8603;46.944;7.412;2023-07-13T02:43:53;7.22;;;4.65;;
16973;SDS011;8603;46.944;7.412;2023-07-13T02:46:27;6.30;;;4.53;;
16973;SDS011;8603;46.944;7.412;2023-07-13T02:48:53;12.48;;;5.70;;
16973;SDS011;8603;46.944;7.412;2023-07-13T02:51:19;9.10;;;5.15;;
16973;SDS011;8603;46.944;7.412;2023-07-13T02:53:44;8.35;;;4.72;;
16973;SDS011;8603;46.944;7.412;2023-07-13T02:56:10;7.60;;;4.32;;
16973;SDS011;8603;46.944;7.412;2023-07-13T02:58:36;7.00;;;4.57;;
16973;SDS011;8603;46.944;7.412;2023-07-13T03:01:05;6.82;;;4.32;;
16973;SDS011;8603;46.944;7.412;2023-07-13T03:03:32;7.05;;;4.40;;
16973;SDS011;8603;46.944;7.412;2023-07-13T03:06:01;8.27;;;4.93;;
16973;SDS011;8603;46.944;7.412;2023-07-13T03:08:30;7.50;;;5.07;;
16973;SDS011;8603;46.944;7.412;2023-07-13T03:10:59;7.20;;;4.57;;
16973;SDS011;8603;46.944;7.412;2023-07-13T03:13:30;9.30;;;5.50;;
16973;SDS011;8603;46.944;7.412;2023-07-13T03:15:55;7.38;;;5.13;;
16973;SDS011;8603;46.944;7.412;2023-07-13T03:18:21;7.07;;;4.60;;
16973;SDS011;8603;46.944;7.412;2023-07-13T03:20:49;7.97;;;4.47;;
16973;SDS011;8603;46.944;7.412;2023-07-13T03:23:16;10.75;;;5.38;;
16973;SDS011;8603;46.944;7.412;2023-07-13T03:25:42;7.10;;;4.38;;
16973;SDS011;8603;46.944;7.412;2023-07-13T03:28:09;8.50;;;4.28;;
16973;SDS011;8603;46.944;7.412;2023-07-13T03:30:36;5.85;;;3.70;;
16973;SDS011;8603;46.944;7.412;2023-07-13T03:33:01;7.43;;;4.50;;
16973;SDS011;8603;46.944;7.412;2023-07-13T03:35:27;7.85;;;4.05;;
16973;SDS011;8603;46.944;7.412;2023-07-13T03:37:52;9.27;;;4.45;;
16973;SDS011;8603;46.944;7.412;2023-07-13T03:40:18;7.97;;;3.88;;
16973;SDS011;8603;46.944;7.412;2023-07-13T03:42:44;7.55;;;4.22;;
16973;SDS011;8603;46.944;7.412;2023-07-13T03:45:09;7.25;;;3.85;;
16973;SDS011;8603;46.944;7.412;2023-07-13T03:47:35;7.68;;;4.40;;
16973;SDS011;8603;46.944;7.412;2023-07-13T03:50:00;8.77;;;4.28;;
16973;SDS011;8603;46.944;7.412;2023-07-13T03:52:26;6.45;;;4.40;;
16973;SDS011;8603;46.944;7.412;2023-07-13T03:54:51;6.75;;;4.53;;
16973;SDS011;8603;46.944;7.412;2023-07-13T03:57:17;6.60;;;4.53;;
16973;SDS011;8603;46.944;7.412;2023-07-13T03:59:43;8.32;;;4.43;;
16973;SDS011;8603;46.944;7.412;2023-07-13T04:02:09;8.20;;;5.05;;
16973;SDS011;8603;46.944;7.412;2023-07-13T04:04:35;9.35;;;4.72;;
16973;SDS011;8603;46.944;7.412;2023-07-13T04:07:00;11.82;;;5.05;;
16973;SDS011;8603;46.944;7.412;2023-07-13T04:09:26;8.93;;;4.90;;
16973;SDS011;8603;46.944;7.412;2023-07-13T04:11:52;8.55;;;4.63;;
16973;SDS011;8603;46.944;7.412;2023-07-13T04:14:17;11.55;;;4.95;;
16973;SDS011;8603;46.944;7.412;2023-07-13T04:16:43;6.13;;;3.53;;
16973;SDS011;8603;46.944;7.412;2023-07-13T04:19:09;7.03;;;4.05;;
16973;SDS011;8603;46.944;7.412;2023-07-13T04:21:35;4.68;;;3.60;;
16973;SDS011;8603;46.944;7.412;2023-07-13T04:24:01;4.63;;;3.33;;
16973;SDS011;8603;46.944;7.412;2023-07-13T04:26:29;5.07;;;3.38;;
16973;SDS011;8603;46.944;7.412;2023-07-13T04:28:55;5.65;;;3.97;;
16973;SDS011;8603;46.944;7.412;2023-07-13T04:31:21;6.97;;;4.25;;
16973;SDS011;8603;46.944;7.412;2023-07-13T04:33:47;8.68;;;4.22;;
16973;SDS011;8603;46.944;7.412;2023-07-13T04:36:14;17.02;;;5.60;;
16973;SDS011;8603;46.944;7.412;2023-07-13T04:38:40;7.43;;;4.28;;
16973;SDS011;8603;46.944;7.412;2023-07-13T04:41:06;8.80;;;4.82;;
16973;SDS011;8603;46.944;7.412;2023-07-13T04:43:33;10.13;;;4.38;;
16973;SDS011;8603;46.944;7.412;2023-07-13T04:46:06;6.28;;;4.10;;
16973;SDS011;8603;46.944;7.412;2023-07-13T04:48:33;8.00;;;4.00;;
16973;SDS011;8603;46.944;7.412;2023-07-13T04:51:00;7.80;;;4.32;;
16973;SDS011;8603;46.944;7.412;2023-07-13T04:53:26;6.53;;;3.90;;
16973;SDS011;8603;46.944;7.412;2023-07-13T04:55:53;5.63;;;4.30;;
16973;SDS011;8603;46.944;7.412;2023-07-13T04:58:18;6.30;;;4.00;;
16973;SDS011;8603;46.944;7.412;2023-07-13T05:00:44;6.53;;;3.80;;
16973;SDS011;8603;46.944;7.412;2023-07-13T05:03:10;7.00;;;3.80;;
16973;SDS011;8603;46.944;7.412;2023-07-13T05:05:36;6.85;;;3.95;;
16973;SDS011;8603;46.944;7.412;2023-07-13T05:08:01;5.65;;;3.50;;
16973;SDS011;8603;46.944;7.412;2023-07-13T05:10:27;4.10;;;3.38;;
16973;SDS011;8603;46.944;7.412;2023-07-13T05:12:52;6.82;;;3.85;;
16973;SDS011;8603;46.944;7.412;2023-07-13T05:15:20;9.05;;;4.30;;
16973;SDS011;8603;46.944;7.412;2023-07-13T05:17:47;5.95;;;3.95;;
16973;SDS011;8603;46.944;7.412;2023-07-13T05:20:13;5.38;;;3.75;;
16973;SDS011;8603;46.944;7.412;2023-07-13T05:22:39;7.30;;;3.80;;
16973;SDS011;8603;46.944;7.412;2023-07-13T05:25:05;7.63;;;4.13;;
16973;SDS011;8603;46.944;7.412;2023-07-13T05:27:32;5.65;;;3.80;;
16973;SDS011;8603;46.944;7.412;2023-07-13T05:29:58;6.43;;;4.03;;
16973;SDS011;8603;46.944;7.412;2023-07-13T05:32:23;7.57;;;4.55;;
16973;SDS011;8603;46.944;7.412;2023-07-13T05:34:49;7.68;;;3.70;;
16973;SDS011;8603;46.944;7.412;2023-07-13T05:37:14;5.53;;;3.72;;
16973;SDS011;8603;46.944;7.412;2023-07-13T05:39:40;4.22;;;3.53;;
16973;SDS011;8603;46.944;7.412;2023-07-13T05:42:05;4.65;;;3.60;;
16973;SDS011;8603;46.944;7.412;2023-07-13T05:44:31;7.57;;;4.35;;
16973;SDS011;8603;46.944;7.412;2023-07-13T05:46:57;6.50;;;3.58;;
16973;SDS011;8603;46.944;7.412;2023-07-13T05:49:22;6.03;;;3.97;;
16973;SDS011;8603;46.944;7.412;2023-07-13T05:51:49;6.90;;;4.05;;
16973;SDS011;8603;46.944;7.412;2023-07-13T05:54:14;9.35;;;4.00;;
16973;SDS011;8603;46.944;7.412;2023-07-13T05:56:40;5.50;;;3.60;;
16973;SDS011;8603;46.944;7.412;2023-07-13T05:59:05;5.72;;;4.03;;
16973;SDS011;8603;46.944;7.412;2023-07-13T06:01:31;5.13;;;3.47;;
16973;SDS011;8603;46.944;7.412;2023-07-13T06:03:56;5.68;;;3.55;;
16973;SDS011;8603;46.944;7.412;2023-07-13T06:06:22;7.78;;;3.78;;
16973;SDS011;8603;46.944;7.412;2023-07-13T06:08:48;4.25;;;3.28;;
16973;SDS011;8603;46.944;7.412;2023-07-13T06:13:40;4.88;;;3.17;;
16973;SDS011;8603;46.944;7.412;2023-07-13T06:16:06;4.68;;;3.30;;
16973;SDS011;8603;46.944;7.412;2023-07-13T06:18:33;6.38;;;3.75;;
16973;SDS011;8603;46.944;7.412;2023-07-13T06:21:00;5.22;;;3.45;;
16973;SDS011;8603;46.944;7.412;2023-07-13T06:23:26;4.82;;;3.20;;
16973;SDS011;8603;46.944;7.412;2023-07-13T06:25:51;4.22;;;3.10;;
16973;SDS011;8603;46.944;7.412;2023-07-13T06:28:17;4.15;;;2.90;;
16973;SDS011;8603;46.944;7.412;2023-07-13T06:30:43;3.78;;;3.05;;
16973;SDS011;8603;46.944;7.412;2023-07-13T06:33:09;4.30;;;3.30;;
16973;SDS011;8603;46.944;7.412;2023-07-13T06:35:34;5.70;;;3.60;;
16973;SDS011;8603;46.944;7.412;2023-07-13T06:38:00;4.22;;;3.00;;
16973;SDS011;8603;46.944;7.412;2023-07-13T06:40:27;4.28;;;3.10;;
16973;SDS011;8603;46.944;7.412;2023-07-13T06:42:54;6.15;;;3.75;;
16973;SDS011;8603;46.944;7.412;2023-07-13T06:45:19;3.55;;;2.72;;
16973;SDS011;8603;46.944;7.412;2023-07-13T06:47:45;4.63;;;2.90;;
16973;SDS011;8603;46.944;7.412;2023-07-13T06:50:10;5.60;;;3.30;;
16973;SDS011;8603;46.944;7.412;2023-07-13T06:52:36;3.20;;;2.70;;
16973;SDS011;8603;46.944;7.412;2023-07-13T06:55:02;4.78;;;2.70;;
16973;SDS011;8603;46.944;7.412;2023-07-13T06:57:27;5.32;;;2.83;;
16973;SDS011;8603;46.944;7.412;2023-07-13T06:59:53;2.70;;;2.42;;
16973;SDS011;8603;46.944;7.412;2023-07-13T07:02:18;7.25;;;2.60;;
16973;SDS011;8603;46.944;7.412;2023-07-13T07:04:44;3.45;;;2.30;;
16973;SDS011;8603;46.944;7.412;2023-07-13T07:07:09;3.05;;;2.60;;
16973;SDS011;8603;46.944;7.412;2023-07-13T07:09:35;2.55;;;2.20;;
16973;SDS011;8603;46.944;7.412;2023-07-13T07:12:01;2.63;;;2.20;;
16973;SDS011;8603;46.944;7.412;2023-07-13T07:14:27;4.68;;;2.63;;
16973;SDS011;8603;46.944;7.412;2023-07-13T07:16:53;2.83;;;2.25;;
16973;SDS011;8603;46.944;7.412;2023-07-13T07:19:19;5.35;;;2.53;;
16973;SDS011;8603;46.944;7.412;2023-07-13T07:21:45;2.72;;;2.30;;
16973;SDS011;8603;46.944;7.412;2023-07-13T07:24:10;4.50;;;2.67;;
16973;SDS011;8603;46.944;7.412;2023-07-13T07:26:36;4.78;;;2.40;;
16973;SDS011;8603;46.944;7.412;2023-07-13T07:29:01;2.75;;;2.35;;
16973;SDS011;8603;46.944;7.412;2023-07-13T07:31:27;4.15;;;2.22;;
16973;SDS011;8603;46.944;7.412;2023-07-13T07:33:52;3.47;;;2.40;;
16973;SDS011;8603;46.944;7.412;2023-07-13T07:36:18;3.10;;;2.33;;
16973;SDS011;8603;46.944;7.412;2023-07-13T07:38:44;2.97;;;2.25;;
16973;SDS011;8603;46.944;7.412;2023-07-13T07:41:09;2.40;;;2.20;;
16973;SDS011;8603;46.944;7.412;2023-07-13T07:43:35;3.67;;;2.20;;
16973;SDS011;8603;46.944;7.412;2023-07-13T07:46:01;2.70;;;2.17;;
16973;SDS011;8603;46.944;7.412;2023-07-13T07:48:27;2.05;;;1.90;;
16973;SDS011;8603;46.944;7.412;2023-07-13T07:50:53;2.30;;;1.90;;
16973;SDS011;8603;46.944;7.412;2023-07-13T07:53:18;3.25;;;2.40;;
16973;SDS011;8603;46.944;7.412;2023-07-13T07:55:44;2.13;;;2.03;;
16973;SDS011;8603;46.944;7.412;2023-07-13T07:58:10;2.53;;;1.98;;
16973;SDS011;8603;46.944;7.412;2023-07-13T08:00:35;2.95;;;2.30;;
16973;SDS011;8603;46.944;7.412;2023-07-13T08:03:01;2.65;;;2.38;;
16973;SDS011;8603;46.944;7.412;2023-07-13T08:05:27;5.63;;;2.75;;
16973;SDS011;8603;46.944;7.412;2023-07-13T08:07:53;2.83;;;2.45;;
16973;SDS011;8603;46.944;7.412;2023-07-13T08:10:19;2.70;;;2.50;;
16973;SDS011;8603;46.944;7.412;2023-07-13T08:12:45;2.83;;;2.53;;
16973;SDS011;8603;46.944;7.412;2023-07-13T08:15:11;3.10;;;2.80;;
16973;SDS011;8603;46.944;7.412;2023-07-13T08:17:38;2.75;;;2.30;;
16973;SDS011;8603;46.944;7.412;2023-07-13T08:20:04;2.47;;;2.20;;
16973;SDS011;8603;46.944;7.412;2023-07-13T08:22:30;4.40;;;2.45;;
16973;SDS011;8603;46.944;7.412;2023-07-13T08:24:56;1.90;;;1.80;;
16973;SDS011;8603;46.944;7.412;2023-07-13T08:27:25;2.20;;;1.90;;
16973;SDS011;8603;46.944;7.412;2023-07-13T08:29:52;2.17;;;1.98;;
16973;SDS011;8603;46.944;7.412;2023-07-13T08:32:19;3.53;;;1.80;;
16973;SDS011;8603;46.944;7.412;2023-07-13T08:34:46;2.20;;;1.90;;
16973;SDS011;8603;46.944;7.412;2023-07-13T08:37:12;2.40;;;1.77;;
16973;SDS011;8603;46.944;7.412;2023-07-13T08:39:38;2.03;;;1.70;;
16973;SDS011;8603;46.944;7.412;2023-07-13T08:42:11;2.60;;;1.65;;
16973;SDS011;8603;46.944;7.412;2023-07-13T08:45:13;2.13;;;1.80;;
16973;SDS011;8603;46.944;7.412;2023-07-13T08:47:39;2.40;;;1.80;;
16973;SDS011;8603;46.944;7.412;2023-07-13T08:50:19;1.50;;;1.40;;
16973;SDS011;8603;46.944;7.412;2023-07-13T08:52:49;4.35;;;1.85;;
16973;SDS011;8603;46.944;7.412;2023-07-13T08:55:24;2.78;;;1.30;;
16973;SDS011;8603;46.944;7.412;2023-07-13T08:57:56;2.50;;;1.40;;
16973;SDS011;8603;46.944;7.412;2023-07-13T09:00:40;1.83;;;1.50;;
16973;SDS011;8603;46.944;7.412;2023-07-13T09:03:25;1.40;;;1.30;;
16973;SDS011;8603;46.944;7.412;2023-07-13T09:05:57;4.13;;;1.30;;
16973;SDS011;8603;46.944;7.412;2023-07-13T09:10:53;1.90;;;1.67;;
16973;SDS011;8603;46.944;7.412;2023-07-13T09:13:37;2.67;;;1.73;;
16973;SDS011;8603;46.944;7.412;2023-07-13T09:16:05;1.80;;;1.27;;
16973;SDS011;8603;46.944;7.412;2023-07-13T09:18:35;1.40;;;1.10;;
16973;SDS011;8603;46.944;7.412;2023-07-13T09:21:03;1.67;;;1.30;;
16973;SDS011;8603;46.944;7.412;2023-07-13T09:23:34;1.30;;;1.20;;
16973;SDS011;8603;46.944;7.412;2023-07-13T09:26:05;1.65;;;1.30;;
16973;SDS011;8603;46.944;7.412;2023-07-13T09:28:37;2.22;;;2.03;;
16973;SDS011;8603;46.944;7.412;2023-07-13T09:31:16;2.35;;;1.52;;
16973;SDS011;8603;46.944;7.412;2023-07-13T09:33:56;1.30;;;1.20;;
16973;SDS011;8603;46.944;7.412;2023-07-13T09:39:00;1.08;;;1.08;;
16973;SDS011;8603;46.944;7.412;2023-07-13T09:44:31;1.25;;;1.15;;
16973;SDS011;8603;46.944;7.412;2023-07-13T09:47:00;1.48;;;1.30;;
16973;SDS011;8603;46.944;7.412;2023-07-13T09:49:27;1.15;;;1.05;;
16973;SDS011;8603;46.944;7.412;2023-07-13T09:52:04;1.45;;;1.35;;
16973;SDS011;8603;46.944;7.412;2023-07-13T09:54:34;1.17;;;1.08;;
16973;SDS011;8603;46.944;7.412;2023-07-13T09:57:01;1.13;;;1.02;;
16973;SDS011;8603;46.944;7.412;2023-07-13T09:59:29;1.50;;;1.40;;
16973;SDS011;8603;46.944;7.412;2023-07-13T10:02:01;1.00;;;1.00;;
16973;SDS011;8603;46.944;7.412;2023-07-13T10:04:31;1.17;;;1.13;;
16973;SDS011;8603;46.944;7.412;2023-07-13T10:07:08;1.55;;;1.20;;
16973;SDS011;8603;46.944;7.412;2023-07-13T10:09:38;1.13;;;1.05;;
16973;SDS011;8603;46.944;7.412;2023-07-13T10:12:04;1.25;;;1.15;;
16973;SDS011;8603;46.944;7.412;2023-07-13T10:14:38;1.20;;;1.10;;
16973;SDS011;8603;46.944;7.412;2023-07-13T10:17:08;1.95;;;1.17;;
16973;SDS011;8603;46.944;7.412;2023-07-13T10:19:41;2.08;;;1.33;;
16973;SDS011;8603;46.944;7.412;2023-07-13T10:22:17;2.35;;;1.20;;
16973;SDS011;8603;46.944;7.412;2023-07-13T10:24:54;1.45;;;1.10;;
16973;SDS011;8603;46.944;7.412;2023-07-13T10:27:23;1.95;;;1.10;;
16973;SDS011;8603;46.944;7.412;2023-07-13T10:29:55;1.88;;;1.17;;
16973;SDS011;8603;46.944;7.412;2023-07-13T10:32:26;1.75;;;1.30;;
16973;SDS011;8603;46.944;7.412;2023-07-13T10:34:52;2.72;;;1.40;;
16973;SDS011;8603;46.944;7.412;2023-07-13T10:37:22;2.08;;;1.20;;
16973;SDS011;8603;46.944;7.412;2023-07-13T10:39:50;2.90;;;1.58;;
16973;SDS011;8603;46.944;7.412;2023-07-13T10:42:37;1.73;;;1.25;;
16973;SDS011;8603;46.944;7.412;2023-07-13T10:45:13;1.95;;;1.38;;
16973;SDS011;8603;46.944;7.412;2023-07-13T10:47:41;2.38;;;1.38;;
16973;SDS011;8603;46.944;7.412;2023-07-13T10:50:07;1.33;;;1.23;;
16973;SDS011;8603;46.944;7.412;2023-07-13T10:52:41;1.20;;;1.15;;
16973;SDS011;8603;46.944;7.412;2023-07-13T11:01:02;1.50;;;1.30;;
16973;SDS011;8603;46.944;7.412;2023-07-13T11:03:32;1.77;;;1.38;;
16973;SDS011;8603;46.944;7.412;2023-07-13T11:06:08;1.42;;;1.30;;
16973;SDS011;8603;46.944;7.412;2023-07-13T11:08:38;2.03;;;1.70;;
16973;SDS011;8603;46.944;7.412;2023-07-13T11:18:41;3.35;;;1.67;;
16973;SDS011;8603;46.944;7.412;2023-07-13T11:21:17;6.03;;;2.10;;
16973;SDS011;8603;46.944;7.412;2023-07-13T11:23:54;4.35;;;1.70;;
16973;SDS011;8603;46.944;7.412;2023-07-13T11:26:43;2.83;;;1.60;;
16973;SDS011;8603;46.944;7.412;2023-07-13T11:31:42;1.60;;;1.50;;
16973;SDS011;8603;46.944;7.412;2023-07-13T11:34:24;2.35;;;1.63;;
16973;SDS011;8603;46.944;7.412;2023-07-13T11:37:02;1.67;;;1.40;;
16973;SDS011;8603;46.944;7.412;2023-07-13T11:42:02;2.13;;;1.45;;
16973;SDS011;8603;46.944;7.412;2023-07-13T11:44:30;2.20;;;1.40;;
16973;SDS011;8603;46.944;7.412;2023-07-13T11:46:59;1.92;;;1.60;;
16973;SDS011;8603;46.944;7.412;2023-07-13T11:49:38;1.73;;;1.60;;
16973;SDS011;8603;46.944;7.412;2023-07-13T11:52:12;2.20;;;1.60;;
16973;SDS011;8603;46.944;7.412;2023-07-13T11:54:49;1.50;;;1.40;;
16973;SDS011;8603;46.944;7.412;2023-07-13T11:59:59;1.30;;;1.20;;
16973;SDS011;8603;46.944;7.412;2023-07-13T12:02:28;1.88;;;1.40;;
16973;SDS011;8603;46.944;7.412;2023-07-13T12:04:57;1.52;;;1.30;;
16973;SDS011;8603;46.944;7.412;2023-07-13T12:07:23;1.67;;;1.40;;
16973;SDS011;8603;46.944;7.412;2023-07-13T12:09:49;1.67;;;1.58;;
16973;SDS011;8603;46.944;7.412;2023-07-13T12:12:21;1.92;;;1.60;;
16973;SDS011;8603;46.944;7.412;2023-07-13T12:14:51;5.13;;;1.40;;
16973;SDS011;8603;46.944;7.412;2023-07-13T12:17:21;2.45;;;1.58;;
16973;SDS011;8603;46.944;7.412;2023-07-13T12:19:49;1.50;;;1.40;;
16973;SDS011;8603;46.944;7.412;2023-07-13T12:22:17;1.50;;;1.40;;
16973;SDS011;8603;46.944;7.412;2023-07-13T12:24:45;1.42;;;1.30;;
16973;SDS011;8603;46.944;7.412;2023-07-13T12:27:19;1.30;;;1.15;;
16973;SDS011;8603;46.944;7.412;2023-07-13T12:29:51;1.50;;;1.40;;
16973;SDS011;8603;46.944;7.412;2023-07-13T12:32:23;2.75;;;1.60;;
16973;SDS011;8603;46.944;7.412;2023-07-13T12:34:51;2.83;;;1.70;;
16973;SDS011;8603;46.944;7.412;2023-07-13T12:37:34;1.88;;;1.50;;
16973;SDS011;8603;46.944;7.412;2023-07-13T12:40:00;1.60;;;1.50;;
16973;SDS011;8603;46.944;7.412;2023-07-13T12:42:31;2.78;;;1.52;;
16973;SDS011;8603;46.944;7.412;2023-07-13T12:45:02;4.80;;;1.60;;
16973;SDS011;8603;46.944;7.412;2023-07-13T12:47:43;2.45;;;1.50;;
16973;SDS011;8603;46.944;7.412;2023-07-13T12:50:16;1.33;;;1.23;;
16973;SDS011;8603;46.944;7.412;2023-07-13T12:52:50;1.52;;;1.30;;
16973;SDS011;8603;46.944;7.412;2023-07-13T12:55:17;3.70;;;1.80;;
16973;SDS011;8603;46.944;7.412;2023-07-13T12:57:49;1.98;;;1.27;;
16973;SDS011;8603;46.944;7.412;2023-07-13T13:00:26;2.03;;;1.73;;
16973;SDS011;8603;46.944;7.412;2023-07-13T13:02:55;1.70;;;1.50;;
16973;SDS011;8603;46.944;7.412;2023-07-13T13:05:22;1.67;;;1.35;;
16973;SDS011;8603;46.944;7.412;2023-07-13T13:07:51;2.30;;;1.50;;
16973;SDS011;8603;46.944;7.412;2023-07-13T13:10:17;1.60;;;1.50;;
16973;SDS011;8603;46.944;7.412;2023-07-13T13:12:42;1.50;;;1.40;;
16973;SDS011;8603;46.944;7.412;2023-07-13T13:15:09;1.77;;;1.50;;
16973;SDS011;8603;46.944;7.412;2023-07-13T13:17:36;1.30;;;1.20;;
16973;SDS011;8603;46.944;7.412;2023-07-13T13:20:11;1.45;;;1.15;;
16973;SDS011;8603;46.944;7.412;2023-07-13T13:22:43;1.65;;;1.38;;
16973;SDS011;8603;46.944;7.412;2023-07-13T13:25:12;2.38;;;1.40;;
16973;SDS011;8603;46.944;7.412;2023-07-13T13:27:40;2.15;;;1.42;;
16973;SDS011;8603;46.944;7.412;2023-07-13T13:30:11;2.20;;;1.60;;
16973;SDS011;8603;46.944;7.412;2023-07-13T13:32:41;2.40;;;1.60;;
16973;SDS011;8603;46.944;7.412;2023-07-13T13:35:13;2.25;;;1.48;;
16973;SDS011;8603;46.944;7.412;2023-07-13T13:37:39;1.83;;;1.30;;
16973;SDS011;8603;46.944;7.412;2023-07-13T13:40:20;1.40;;;1.30;;
16973;SDS011;8603;46.944;7.412;2023-07-13T13:42:48;2.28;;;1.60;;
16973;SDS011;8603;46.944;7.412;2023-07-13T13:45:13;1.40;;;1.30;;
16973;SDS011;8603;46.944;7.412;2023-07-13T13:47:41;1.70;;;1.58;;
16973;SDS011;8603;46.944;7.412;2023-07-13T13:50:11;3.47;;;1.55;;
16973;SDS011;8603;46.944;7.412;2023-07-13T13:52:41;1.38;;;1.00;;
16973;SDS011;8603;46.944;7.412;2023-07-13T13:55:17;1.27;;;1.17;;
16973;SDS011;8603;46.944;7.412;2023-07-13T13:57:47;2.05;;;1.60;;
16973;SDS011;8603;46.944;7.412;2023-07-13T14:00:14;1.67;;;1.40;;
16973;SDS011;8603;46.944;7.412;2023-07-13T14:02:42;1.58;;;1.20;;
16973;SDS011;8603;46.944;7.412;2023-07-13T14:05:16;1.92;;;1.58;;
16973;SDS011;8603;46.944;7.412;2023-07-13T14:07:47;1.52;;;1.40;;
16973;SDS011;8603;46.944;7.412;2023-07-13T14:10:16;1.48;;;1.38;;
16973;SDS011;8603;46.944;7.412;2023-07-13T14:12:47;2.40;;;1.58;;
16973;SDS011;8603;46.944;7.412;2023-07-13T14:15:26;1.70;;;1.60;;
16973;SDS011;8603;46.944;7.412;2023-07-13T14:17:54;2.55;;;1.55;;
16973;SDS011;8603;46.944;7.412;2023-07-13T14:20:20;1.50;;;1.33;;
16973;SDS011;8603;46.944;7.412;2023-07-13T14:22:49;2.28;;;1.50;;
16973;SDS011;8603;46.944;7.412;2023-07-13T14:25:15;1.90;;;1.58;;
16973;SDS011;8603;46.944;7.412;2023-07-13T14:27:43;2.22;;;1.60;;
16973;SDS011;8603;46.944;7.412;2023-07-13T14:30:13;2.22;;;1.50;;
16973;SDS011;8603;46.944;7.412;2023-07-13T14:32:40;2.47;;;1.40;;
16973;SDS011;8603;46.944;7.412;2023-07-13T14:35:07;1.85;;;1.17;;
16973;SDS011;8603;46.944;7.412;2023-07-13T14:37:37;1.83;;;1.40;;
16973;SDS011;8603;46.944;7.412;2023-07-13T14:40:11;2.53;;;1.40;;
16973;SDS011;8603;46.944;7.412;2023-07-13T14:42:38;2.50;;;1.48;;
16973;SDS011;8603;46.944;7.412;2023-07-13T14:45:03;1.52;;;1.27;;
16973;SDS011;8603;46.944;7.412;2023-07-13T14:47:30;1.60;;;1.45;;
16973;SDS011;8603;46.944;7.412;2023-07-13T14:49:55;1.42;;;1.25;;
16973;SDS011;8603;46.944;7.412;2023-07-13T14:52:22;1.45;;;1.35;;
16973;SDS011;8603;46.944;7.412;2023-07-13T14:54:49;1.30;;;1.20;;
16973;SDS011;8603;46.944;7.412;2023-07-13T14:57:17;1.98;;;1.60;;
16973;SDS011;8603;46.944;7.412;2023-07-13T14:59:44;1.92;;;1.45;;
16973;SDS011;8603;46.944;7.412;2023-07-13T15:02:25;1.40;;;1.30;;
16973;SDS011;8603;46.944;7.412;2023-07-13T15:04:54;2.45;;;1.50;;
16973;SDS011;8603;46.944;7.412;2023-07-13T15:07:20;2.45;;;1.35;;
16973;SDS011;8603;46.944;7.412;2023-07-13T15:09:46;2.28;;;1.27;;
16973;SDS011;8603;46.944;7.412;2023-07-13T15:12:12;1.60;;;1.45;;
16973;SDS011;8603;46.944;7.412;2023-07-13T15:14:39;2.60;;;1.40;;
16973;SDS011;8603;46.944;7.412;2023-07-13T15:17:08;3.67;;;1.67;;
16973;SDS011;8603;46.944;7.412;2023-07-13T15:19:51;1.50;;;1.40;;
16973;SDS011;8603;46.944;7.412;2023-07-13T15:22:16;2.35;;;1.40;;
16973;SDS011;8603;46.944;7.412;2023-07-13T15:24:42;1.52;;;1.33;;
16973;SDS011;8603;46.944;7.412;2023-07-13T15:27:10;1.70;;;1.60;;
16973;SDS011;8603;46.944;7.412;2023-07-13T15:29:37;1.55;;;1.30;;
16973;SDS011;8603;46.944;7.412;2023-07-13T15:32:02;2.42;;;1.40;;
16973;SDS011;8603;46.944;7.412;2023-07-13T15:34:28;1.58;;;1.40;;
16973;SDS011;8603;46.944;7.412;2023-07-13T15:36:54;1.35;;;1.25;;
16973;SDS011;8603;46.944;7.412;2023-07-13T15:39:20;3.05;;;1.45;;
16973;SDS011;8603;46.944;7.412;2023-07-13T15:41:45;1.50;;;1.40;;
16973;SDS011;8603;46.944;7.412;2023-07-13T15:44:20;2.30;;;1.52;;